Time;durP1;ratioP1;P1;durP2;ratioP2;P2;SDS_P1;SDS_P2;PMS_P1;PMS_P2;Temp;Humidity;BMP_temperature;BMP_pressure;BME280_temperature;BME280_humidity;BME280_pressure;Samples;Min_cycle;Max_cycle;Signal;HPM_P1;HPM_P2
2021/08/11 00:00:06;;;;;;;9.70;5.20;;;16.00;99.90;;;;;;4151274;28;20261;-81
2021/08/11 00:02:08;;;;;;;7.43;5.20;;;16.00;99.90;;;;;;4155452;28;20214;-81
2021/08/11 00:04:10;;;;;;;10.37;6.00;;;15.90;99.90;;;;;;4150395;28;20231;-80
2021/08/11 00:06:13;;;;;;;13.10;6.33;;;15.90;99.90;;;;;;4147582;28;20630;-81
2021/08/11 00:08:14;;;;;;;9.57;5.60;;;15.80;99.90;;;;;;4152171;28;20242;-80
2021/08/11 00:10:16;;;;;;;10.57;5.87;;;15.80;99.90;;;;;;4151824;28;20218;-81
2021/08/11 00:12:18;;;;;;;9.20;5.97;;;15.80;99.90;;;;;;4139487;28;20223;-80
2021/08/11 00:14:19;;;;;;;8.63;5.87;;;15.80;99.90;;;;;;4146146;28;20706;-80
2021/08/11 00:16:21;;;;;;;11.27;5.90;;;15.80;99.90;;;;;;4153324;28;20208;-80
2021/08/11 00:18:23;;;;;;;8.23;5.63;;;15.70;99.90;;;;;;4152477;28;20233;-81
2021/08/11 00:20:25;;;;;;;9.43;6.00;;;15.70;99.90;;;;;;4147891;28;20218;-80
2021/08/11 00:22:28;;;;;;;8.87;5.60;;;15.70;99.90;;;;;;4172694;28;20210;-81
2021/08/11 00:24:30;;;;;;;9.23;5.80;;;15.70;99.90;;;;;;4169492;28;20214;-81
2021/08/11 00:26:33;;;;;;;8.70;5.67;;;15.60;99.90;;;;;;4155172;28;20214;-81
2021/08/11 00:28:34;;;;;;;7.97;5.30;;;15.60;99.90;;;;;;4154977;28;20267;-82
2021/08/11 00:30:36;;;;;;;10.70;5.87;;;15.60;99.90;;;;;;4148860;28;20217;-81
2021/08/11 00:32:38;;;;;;;9.13;5.40;;;15.60;99.90;;;;;;4168019;28;20831;-82
2021/08/11 00:34:41;;;;;;;9.17;5.47;;;15.50;99.90;;;;;;4173000;28;20217;-81
2021/08/11 00:36:42;;;;;;;6.63;4.53;;;15.50;99.90;;;;;;4156951;28;20242;-81
2021/08/11 00:38:45;;;;;;;6.73;4.93;;;15.50;99.90;;;;;;4150452;28;20311;-81
2021/08/11 00:40:47;;;;;;;7.13;4.87;;;15.70;99.90;;;;;;4155669;28;20278;-81
2021/08/11 00:42:49;;;;;;;9.30;5.37;;;15.40;99.90;;;;;;4162221;28;20233;-81
2021/08/11 00:44:50;;;;;;;7.20;4.90;;;15.40;99.90;;;;;;4143149;28;20221;-81
2021/08/11 00:46:52;;;;;;;7.43;4.70;;;15.40;99.90;;;;;;4154343;28;20213;-81
2021/08/11 00:48:55;;;;;;;7.20;4.23;;;15.30;99.90;;;;;;4138648;28;20223;-82
2021/08/11 00:50:58;;;;;;;7.43;4.60;;;15.30;99.90;;;;;;4144020;28;20226;-81
2021/08/11 00:52:59;;;;;;;8.43;4.37;;;15.30;99.90;;;;;;4155627;28;20248;-80
2021/08/11 00:55:03;;;;;;;5.77;4.10;;;15.30;99.90;;;;;;4140245;28;20210;-81
2021/08/11 00:57:05;;;;;;;6.03;4.07;;;15.30;99.90;;;;;;4163141;28;20619;-81
2021/08/11 00:59:08;;;;;;;8.30;4.23;;;15.20;99.90;;;;;;4147854;28;20240;-81
2021/08/11 01:01:11;;;;;;;8.70;4.50;;;15.20;99.90;;;;;;4149564;28;20275;-81
2021/08/11 01:03:17;;;;;;;6.97;3.53;;;15.20;99.90;;;;;;4149266;28;20731;-81
2021/08/11 01:05:19;;;;;;;5.37;3.70;;;15.20;99.90;;;;;;4150800;28;20266;-82
2021/08/11 01:07:22;;;;;;;6.90;4.03;;;15.10;99.90;;;;;;4150441;28;20619;-81
2021/08/11 01:09:24;;;;;;;5.70;3.90;;;15.10;99.90;;;;;;4147424;28;20212;-81
2021/08/11 01:11:27;;;;;;;5.77;4.00;;;15.10;99.90;;;;;;4145057;28;20267;-81
2021/08/11 01:13:29;;;;;;;7.27;4.57;;;15.10;99.90;;;;;;4148132;28;20302;-81
2021/08/11 01:15:31;;;;;;;5.63;3.83;;;15.10;99.90;;;;;;4158000;28;20281;-81
2021/08/11 01:17:33;;;;;;;6.73;3.73;;;15.00;99.90;;;;;;4160624;28;20261;-82
2021/08/11 01:19:36;;;;;;;6.73;3.97;;;15.00;99.90;;;;;;4155521;28;20218;-81
2021/08/11 01:21:45;;;;;;;6.20;4.10;;;15.00;99.90;;;;;;4145978;28;20221;-81
2021/08/11 01:23:54;;;;;;;8.20;4.33;;;15.00;99.90;;;;;;4155828;28;20294;-81
2021/08/11 01:26:05;;;;;;;7.43;4.20;;;14.90;99.90;;;;;;4140139;28;20263;-81
2021/08/11 01:28:54;;;;;;;5.93;4.10;;;14.90;99.90;;;;;;4136769;28;20206;-82
2021/08/11 01:31:04;;;;;;;5.63;3.93;;;14.90;99.90;;;;;;4152812;28;20257;-81
2021/08/11 01:33:31;;;;;;;5.67;3.83;;;14.80;99.90;;;;;;4147665;28;20252;-81
2021/08/11 01:35:39;;;;;;;6.73;4.53;;;14.90;99.90;;;;;;4151290;28;20267;-80
2021/08/11 01:37:42;;;;;;;6.87;4.20;;;14.80;99.90;;;;;;4131262;28;20581;-82
2021/08/11 01:39:48;;;;;;;5.73;3.80;;;14.80;99.90;;;;;;4145346;28;20204;-81
2021/08/11 01:41:55;;;;;;;7.53;3.60;;;14.80;99.90;;;;;;4156124;28;20616;-80
2021/08/11 01:43:57;;;;;;;7.00;4.00;;;14.80;99.90;;;;;;4150902;28;20236;-81
2021/08/11 01:46:00;;;;;;;6.33;3.43;;;14.80;99.90;;;;;;4145135;28;20484;-81
2021/08/11 01:48:08;;;;;;;7.03;4.33;;;14.80;99.90;;;;;;4133152;28;20209;-81
2021/08/11 01:50:15;;;;;;;5.43;3.57;;;14.80;99.90;;;;;;4139134;28;20213;-81
2021/08/11 01:52:18;;;;;;;7.77;3.80;;;14.80;99.90;;;;;;4147683;28;20233;-82
2021/08/11 01:54:20;;;;;;;5.23;3.60;;;14.80;99.90;;;;;;4149301;28;20498;-81
2021/08/11 01:56:22;;;;;;;6.27;3.97;;;14.80;99.90;;;;;;4148536;28;20233;-82
2021/08/11 01:58:26;;;;;;;6.13;4.00;;;14.80;99.90;;;;;;4153812;28;20224;-80
2021/08/11 02:00:27;;;;;;;5.47;3.73;;;14.80;99.90;;;;;;4149626;28;20675;-81
2021/08/11 02:02:29;;;;;;;6.40;3.97;;;14.80;99.90;;;;;;4147658;28;20200;-81
2021/08/11 02:04:32;;;;;;;7.57;3.87;;;14.70;99.90;;;;;;4152063;28;20657;-80
2021/08/11 02:06:36;;;;;;;7.50;3.90;;;14.70;99.90;;;;;;4164003;28;20205;-81
2021/08/11 02:08:42;;;;;;;6.63;3.97;;;14.70;99.90;;;;;;4160696;28;20209;-81
2021/08/11 02:10:45;;;;;;;6.63;4.30;;;14.70;99.90;;;;;;4164413;28;20324;-81
2021/08/11 02:12:46;;;;;;;6.23;3.57;;;14.70;99.90;;;;;;4133071;28;20419;-81
2021/08/11 02:14:48;;;;;;;5.87;3.87;;;14.70;99.90;;;;;;4150006;28;20557;-81
2021/08/11 02:16:50;;;;;;;8.97;4.10;;;14.70;99.90;;;;;;4154579;28;20216;-82
2021/08/11 02:18:52;;;;;;;5.77;3.80;;;14.60;99.90;;;;;;4157360;28;20223;-81
2021/08/11 02:20:54;;;;;;;6.30;4.10;;;14.60;99.90;;;;;;4156475;28;20218;-81
2021/08/11 02:22:57;;;;;;;7.30;4.27;;;14.60;99.90;;;;;;4156889;28;20243;-80
2021/08/11 02:24:59;;;;;;;6.93;4.17;;;14.60;99.90;;;;;;4149735;28;20204;-81
2021/08/11 02:27:05;;;;;;;8.33;4.27;;;14.50;99.90;;;;;;4149347;28;20216;-81
2021/08/11 02:29:15;;;;;;;6.83;3.97;;;14.50;99.90;;;;;;4150979;28;20212;-80
2021/08/11 02:31:23;;;;;;;5.60;4.07;;;14.50;99.90;;;;;;4150224;28;20228;-81
2021/08/11 02:33:31;;;;;;;7.00;4.50;;;14.50;99.90;;;;;;4169722;28;20701;-81
2021/08/11 02:35:38;;;;;;;7.87;4.83;;;14.50;99.90;;;;;;4162715;28;20246;-82
2021/08/11 02:37:43;;;;;;;7.90;4.87;;;14.50;99.90;;;;;;4154663;28;20715;-80
2021/08/11 02:39:56;;;;;;;8.23;4.67;;;14.40;99.90;;;;;;4148578;28;20649;-81
2021/08/11 02:42:04;;;;;;;8.07;4.83;;;14.40;99.90;;;;;;4156729;28;20562;-81
2021/08/11 02:44:09;;;;;;;7.50;4.00;;;14.40;99.90;;;;;;4145209;28;20234;-82
2021/08/11 02:46:16;;;;;;;7.57;4.50;;;14.40;99.90;;;;;;4158475;28;20219;-80
2021/08/11 02:48:18;;;;;;;7.10;4.47;;;14.30;99.90;;;;;;4161409;28;20269;-81
2021/08/11 02:50:20;;;;;;;7.83;4.63;;;14.30;99.90;;;;;;4150700;28;20221;-80
2021/08/11 02:52:23;;;;;;;7.93;5.23;;;14.30;99.90;;;;;;4151285;28;20211;-81
2021/08/11 02:54:27;;;;;;;6.50;4.37;;;14.30;99.90;;;;;;4153291;28;20567;-80
2021/08/11 02:56:31;;;;;;;8.30;4.63;;;14.30;99.90;;;;;;4163060;28;20250;-81
2021/08/11 02:58:33;;;;;;;8.20;4.30;;;14.30;99.90;;;;;;4168296;28;20236;-81
2021/08/11 03:00:36;;;;;;;7.13;4.30;;;14.30;99.90;;;;;;4162771;28;20208;-81
2021/08/11 03:02:38;;;;;;;7.67;4.17;;;14.30;99.90;;;;;;4165586;28;20207;-80
2021/08/11 03:04:41;;;;;;;9.73;4.90;;;14.20;99.90;;;;;;4153711;28;20642;-81
2021/08/11 03:06:43;;;;;;;6.67;4.23;;;14.20;99.90;;;;;;4147023;28;20266;-80
2021/08/11 03:08:45;;;;;;;6.83;4.10;;;14.20;99.90;;;;;;4154908;28;20585;-81
2021/08/11 03:10:47;;;;;;;6.93;4.17;;;14.10;99.90;;;;;;4163057;28;20733;-80
2021/08/11 03:12:51;;;;;;;7.03;4.10;;;14.10;99.90;;;;;;4160168;28;20698;-81
2021/08/11 03:14:53;;;;;;;6.93;4.30;;;14.20;99.90;;;;;;4147787;28;20208;-81
2021/08/11 03:16:54;;;;;;;7.43;4.40;;;14.20;99.90;;;;;;4153444;28;20212;-81
2021/08/11 03:18:56;;;;;;;6.40;4.50;;;14.10;99.90;;;;;;4152627;28;20235;-81
2021/08/11 03:20:58;;;;;;;7.33;4.17;;;14.10;99.90;;;;;;4147642;28;20270;-80
2021/08/11 03:22:59;;;;;;;5.83;3.90;;;14.10;99.90;;;;;;4162092;28;20239;-81
2021/08/11 03:25:01;;;;;;;5.63;3.67;;;14.10;99.90;;;;;;4157930;28;20215;-81
2021/08/11 03:27:03;;;;;;;5.20;3.70;;;14.10;99.90;;;;;;4153226;28;20263;-81
2021/08/11 03:29:06;;;;;;;6.30;3.77;;;14.10;99.90;;;;;;4152606;28;20265;-80
2021/08/11 03:31:08;;;;;;;7.90;4.03;;;14.40;99.90;;;;;;4160238;28;20672;-80
2021/08/11 03:33:10;;;;;;;6.50;4.13;;;14.10;99.90;;;;;;4188618;23;20232;-75
2021/08/11 03:35:11;;;;;;;7.70;4.43;;;14.10;99.90;;;;;;4165041;28;20265;-75
2021/08/11 03:37:16;;;;;;;8.43;4.47;;;14.10;99.90;;;;;;4164419;28;20269;-75
2021/08/11 03:39:18;;;;;;;5.87;3.90;;;14.10;99.90;;;;;;4154592;28;20331;-75
2021/08/11 03:41:19;;;;;;;8.30;4.53;;;14.00;99.90;;;;;;4160615;28;20207;-75
2021/08/11 03:43:21;;;;;;;8.10;4.00;;;14.10;99.90;;;;;;4165654;28;20286;-75
2021/08/11 03:45:24;;;;;;;5.27;3.63;;;14.00;99.90;;;;;;4163469;28;20241;-75
2021/08/11 03:47:26;;;;;;;8.20;4.10;;;14.00;99.90;;;;;;4160995;28;20212;-76
2021/08/11 03:49:27;;;;;;;8.10;4.30;;;14.00;99.90;;;;;;4154384;28;20664;-76
2021/08/11 03:51:29;;;;;;;6.50;3.93;;;14.00;99.90;;;;;;4163991;28;20211;-76
2021/08/11 03:53:31;;;;;;;10.87;4.30;;;14.00;99.90;;;;;;4165044;28;20269;-76
2021/08/11 03:55:32;;;;;;;7.57;4.50;;;13.90;99.90;;;;;;4162607;28;20713;-76
2021/08/11 03:57:34;;;;;;;5.50;3.63;;;13.90;99.90;;;;;;4164569;28;20284;-75
2021/08/11 03:59:36;;;;;;;6.10;4.07;;;13.90;99.90;;;;;;4164369;28;20577;-76
2021/08/11 04:01:39;;;;;;;6.67;4.17;;;13.90;99.90;;;;;;4164519;28;20755;-76
2021/08/11 04:03:40;;;;;;;9.60;4.60;;;13.90;99.90;;;;;;4160005;28;20612;-75
2021/08/11 04:05:42;;;;;;;8.27;4.73;;;13.90;99.90;;;;;;4162568;28;20218;-75
2021/08/11 04:07:44;;;;;;;8.63;4.40;;;13.90;99.90;;;;;;4165558;28;20214;-76
2021/08/11 04:09:45;;;;;;;7.00;4.13;;;13.80;99.90;;;;;;4163692;28;20211;-75
2021/08/11 04:11:47;;;;;;;7.90;4.73;;;13.80;99.90;;;;;;4162694;28;20203;-75
2021/08/11 04:13:49;;;;;;;7.17;4.47;;;13.80;99.90;;;;;;4162952;28;20234;-76
2021/08/11 04:15:51;;;;;;;6.37;4.20;;;13.80;99.90;;;;;;4164177;28;20204;-75
2021/08/11 04:17:54;;;;;;;7.03;3.87;;;13.80;99.90;;;;;;4157789;28;20218;-76
2021/08/11 04:19:55;;;;;;;6.67;4.50;;;13.80;99.90;;;;;;4164515;28;20231;-75
2021/08/11 04:21:59;;;;;;;7.03;4.07;;;13.80;99.90;;;;;;4163004;28;20211;-75
2021/08/11 04:24:01;;;;;;;9.73;4.77;;;13.80;99.90;;;;;;4152296;28;20242;-75
2021/08/11 04:26:02;;;;;;;6.67;4.30;;;13.80;99.90;;;;;;4164075;28;20736;-75
2021/08/11 04:28:05;;;;;;;6.67;4.57;;;13.70;99.90;;;;;;4163917;28;20276;-76
2021/08/11 04:30:08;;;;;;;8.50;4.70;;;13.80;99.90;;;;;;4162883;28;20210;-75
2021/08/11 04:32:10;;;;;;;7.30;4.77;;;13.70;99.90;;;;;;4162156;28;20284;-75
2021/08/11 04:34:13;;;;;;;9.50;5.43;;;13.80;99.90;;;;;;4163807;28;20720;-75
2021/08/11 04:36:14;;;;;;;8.90;5.20;;;13.70;99.90;;;;;;4163213;28;20669;-76
2021/08/11 04:38:18;;;;;;;7.67;5.17;;;13.80;99.90;;;;;;4164573;28;20619;-76
2021/08/11 04:40:20;;;;;;;7.80;4.80;;;13.80;99.90;;;;;;4162550;28;20262;-76
2021/08/11 04:42:21;;;;;;;7.63;4.67;;;13.70;99.90;;;;;;4162245;28;20211;-75
2021/08/11 04:44:23;;;;;;;8.07;4.13;;;13.70;99.90;;;;;;4162707;28;20230;-76
2021/08/11 04:46:25;;;;;;;7.03;3.93;;;13.70;99.90;;;;;;4163010;28;20732;-75
2021/08/11 04:48:26;;;;;;;6.37;4.17;;;13.70;99.90;;;;;;4152815;28;20689;-76
2021/08/11 04:50:29;;;;;;;8.17;4.40;;;13.70;99.90;;;;;;4150361;28;20238;-75
2021/08/11 04:52:31;;;;;;;6.27;4.03;;;13.70;99.90;;;;;;4162852;28;20622;-76
2021/08/11 04:54:33;;;;;;;6.63;3.97;;;13.70;99.90;;;;;;4159588;28;20239;-76
2021/08/11 04:56:35;;;;;;;8.10;3.80;;;13.70;99.90;;;;;;4158469;28;20194;-76
2021/08/11 04:58:36;;;;;;;8.30;4.00;;;13.70;99.90;;;;;;4163763;28;20269;-76
2021/08/11 05:00:38;;;;;;;6.87;4.00;;;13.70;99.90;;;;;;4160369;28;20277;-76
2021/08/11 05:02:39;;;;;;;6.13;4.03;;;13.70;99.90;;;;;;4161183;28;20279;-76
2021/08/11 05:04:41;;;;;;;6.63;3.70;;;13.70;99.90;;;;;;4163401;28;20237;-77
2021/08/11 05:06:44;;;;;;;4.77;3.60;;;13.70;99.90;;;;;;4162497;28;20264;-77
2021/08/11 05:08:46;;;;;;;6.50;4.07;;;13.70;99.90;;;;;;4163090;28;20257;-77
2021/08/11 05:10:48;;;;;;;7.07;4.20;;;13.70;99.90;;;;;;4161569;28;20582;-77
2021/08/11 05:12:49;;;;;;;6.00;4.17;;;13.70;99.90;;;;;;4161822;28;20222;-77
2021/08/11 05:14:54;;;;;;;7.77;4.70;;;13.70;99.90;;;;;;4161668;28;20261;-77
2021/08/11 05:16:56;;;;;;;6.23;4.17;;;13.70;99.90;;;;;;4162165;28;20211;-77
2021/08/11 05:18:57;;;;;;;6.50;4.57;;;13.70;99.90;;;;;;4162445;28;20651;-77
2021/08/11 05:20:59;;;;;;;8.07;4.67;;;13.70;99.90;;;;;;4163301;28;20211;-76
2021/08/11 05:23:02;;;;;;;7.70;4.80;;;13.80;99.90;;;;;;4161324;28;20215;-76
2021/08/11 05:25:04;;;;;;;11.10;4.30;;;13.80;99.90;;;;;;4162597;28;20265;-77
2021/08/11 05:27:06;;;;;;;7.57;4.60;;;13.80;99.90;;;;;;4163401;28;20211;-76
2021/08/11 05:29:08;;;;;;;6.50;4.30;;;13.80;99.90;;;;;;4162543;28;20210;-76
2021/08/11 05:31:09;;;;;;;8.20;5.20;;;13.80;99.90;;;;;;4163823;28;20215;-76
2021/08/11 05:33:11;;;;;;;8.00;5.00;;;13.80;99.90;;;;;;4160988;28;20239;-77
2021/08/11 05:35:13;;;;;;;7.63;4.90;;;13.80;99.90;;;;;;4153722;28;20279;-76
2021/08/11 05:37:14;;;;;;;8.53;5.70;;;13.80;99.90;;;;;;4163829;28;20210;-75
2021/08/11 05:39:17;;;;;;;8.33;5.13;;;13.80;99.90;;;;;;4162800;28;20214;-76
2021/08/11 05:41:19;;;;;;;12.20;6.70;;;13.90;99.90;;;;;;4163772;28;20626;-76
2021/08/11 05:43:21;;;;;;;12.33;7.10;;;13.90;99.90;;;;;;4152381;28;20282;-79
2021/08/11 05:45:22;;;;;;;11.63;7.40;;;13.90;99.90;;;;;;4161799;28;20273;-79
2021/08/11 05:47:24;;;;;;;9.20;6.30;;;14.00;99.90;;;;;;4163475;28;20257;-79
2021/08/11 05:49:26;;;;;;;12.50;7.43;;;14.00;99.90;;;;;;4169380;28;20269;-78
2021/08/11 05:51:28;;;;;;;11.53;7.37;;;14.00;99.90;;;;;;4153805;28;20254;-77
2021/08/11 05:53:29;;;;;;;11.00;6.60;;;14.10;99.90;;;;;;4162183;28;20226;-77
2021/08/11 05:55:32;;;;;;;10.57;6.77;;;14.10;99.90;;;;;;4155658;28;20245;-77
2021/08/11 05:57:38;;;;;;;11.23;6.30;;;14.10;99.90;;;;;;4161815;28;20207;-77
2021/08/11 05:59:40;;;;;;;12.10;6.67;;;14.10;99.90;;;;;;4160460;28;20233;-76
2021/08/11 06:01:42;;;;;;;10.27;6.03;;;14.20;99.90;;;;;;4162723;28;20234;-77
2021/08/11 06:03:43;;;;;;;8.33;5.77;;;14.20;99.90;;;;;;4162530;28;20282;-77
2021/08/11 06:05:45;;;;;;;10.17;5.93;;;14.20;99.90;;;;;;4163600;28;20264;-77
2021/08/11 06:07:47;;;;;;;10.83;6.30;;;14.30;99.90;;;;;;4166193;28;20214;-76
2021/08/11 06:09:49;;;;;;;10.53;6.10;;;14.30;99.90;;;;;;4165622;28;20269;-76
2021/08/11 06:11:52;;;;;;;9.57;6.20;;;14.30;99.90;;;;;;4165912;28;20211;-75
2021/08/11 06:13:56;;;;;;;10.17;6.17;;;14.40;99.90;;;;;;4166269;28;20789;-76
2021/08/11 06:15:58;;;;;;;10.43;5.93;;;14.40;99.90;;;;;;4167327;28;20219;-76
2021/08/11 06:18:00;;;;;;;11.00;5.80;;;14.40;99.90;;;;;;4166360;28;20713;-76
2021/08/11 06:20:01;;;;;;;9.93;6.10;;;14.40;99.90;;;;;;4165146;28;20230;-75
2021/08/11 06:22:03;;;;;;;11.43;6.00;;;14.40;99.90;;;;;;4160437;28;20215;-76
2021/08/11 06:24:05;;;;;;;9.23;5.60;;;14.40;99.90;;;;;;4165832;28;20239;-76
2021/08/11 06:26:07;;;;;;;8.80;5.80;;;14.50;99.90;;;;;;4166240;28;20211;-75
2021/08/11 06:28:10;;;;;;;11.37;6.53;;;14.50;99.90;;;;;;4166994;28;20572;-75
2021/08/11 06:30:13;;;;;;;9.43;5.87;;;14.50;99.90;;;;;;4151245;28;20577;-75
2021/08/11 06:32:14;;;;;;;9.67;5.80;;;14.60;99.90;;;;;;4150848;28;20264;-76
2021/08/11 06:34:17;;;;;;;8.63;5.50;;;14.60;99.90;;;;;;4164832;28;20235;-76
2021/08/11 06:36:19;;;;;;;11.03;6.27;;;14.60;99.90;;;;;;4164992;28;20725;-76
2021/08/11 06:38:21;;;;;;;9.10;5.93;;;14.70;99.90;;;;;;4149203;28;20274;-75
2021/08/11 06:40:23;;;;;;;9.33;6.13;;;14.70;99.90;;;;;;4149114;28;20229;-76
2021/08/11 06:42:25;;;;;;;9.43;6.53;;;14.70;99.90;;;;;;4150304;28;20217;-76
2021/08/11 06:44:28;;;;;;;9.60;5.97;;;14.70;99.90;;;;;;4160532;28;20255;-76
2021/08/11 06:46:30;;;;;;;13.73;6.80;;;14.70;99.90;;;;;;4164834;28;20204;-75
2021/08/11 06:48:31;;;;;;;9.47;5.63;;;14.80;99.90;;;;;;4165110;28;20261;-76
2021/08/11 06:50:33;;;;;;;9.90;6.80;;;14.80;99.90;;;;;;4166116;28;20215;-75
2021/08/11 06:52:35;;;;;;;9.33;6.37;;;14.80;99.90;;;;;;4165627;28;20265;-76
2021/08/11 06:54:37;;;;;;;9.97;6.43;;;14.80;99.90;;;;;;4159102;28;20232;-75
2021/08/11 06:56:39;;;;;;;9.40;6.27;;;14.90;99.90;;;;;;4164389;28;20230;-76
2021/08/11 06:58:40;;;;;;;9.03;6.73;;;14.90;99.90;;;;;;4165460;28;20215;-76
2021/08/11 07:00:43;;;;;;;8.47;6.37;;;14.90;99.90;;;;;;4165200;28;20232;-76
2021/08/11 07:02:45;;;;;;;8.93;6.60;;;14.90;99.90;;;;;;4160231;28;20211;-76
2021/08/11 07:04:47;;;;;;;8.90;6.30;;;15.00;99.90;;;;;;4154284;28;20590;-76
2021/08/11 07:06:48;;;;;;;9.03;6.50;;;15.00;99.90;;;;;;4166107;28;20602;-76
2021/08/11 07:08:50;;;;;;;8.20;5.77;;;15.00;99.90;;;;;;4165452;28;20704;-76
2021/08/11 07:10:52;;;;;;;9.00;6.27;;;15.10;99.90;;;;;;4161063;28;20692;-76
2021/08/11 07:12:54;;;;;;;8.27;6.13;;;15.10;99.90;;;;;;4149781;28;20216;-76
2021/08/11 07:14:56;;;;;;;8.77;6.50;;;15.20;99.90;;;;;;4161323;28;20293;-76
2021/08/11 07:16:59;;;;;;;10.10;6.60;;;15.20;99.90;;;;;;4166093;28;20209;-76
2021/08/11 07:19:00;;;;;;;8.13;6.00;;;15.20;99.90;;;;;;4164857;28;20343;-76
2021/08/11 07:21:02;;;;;;;9.87;6.23;;;15.30;99.90;;;;;;4154324;28;20707;-76
2021/08/11 07:23:04;;;;;;;9.30;6.30;;;15.30;99.90;;;;;;4163696;28;20240;-75
2021/08/11 07:25:06;;;;;;;9.20;6.13;;;15.30;99.90;;;;;;4165799;28;20207;-76
2021/08/11 07:27:08;;;;;;;11.10;6.77;;;15.30;99.90;;;;;;4165501;28;20239;-76
2021/08/11 07:29:10;;;;;;;11.47;6.90;;;15.40;99.90;;;;;;4164589;28;20203;-75
2021/08/11 07:31:11;;;;;;;14.03;7.67;;;15.40;99.90;;;;;;4165866;28;20210;-76
2021/08/11 07:33:14;;;;;;;12.03;8.13;;;15.50;99.90;;;;;;4165031;28;20306;-76
2021/08/11 07:35:17;;;;;;;11.47;8.03;;;15.50;99.90;;;;;;4164026;28;20261;-75
2021/08/11 07:37:19;;;;;;;9.73;7.33;;;15.50;99.90;;;;;;4164145;28;20210;-76
2021/08/11 07:39:20;;;;;;;10.87;8.13;;;15.60;99.90;;;;;;4160141;28;20206;-75
2021/08/11 07:41:22;;;;;;;11.13;7.67;;;15.70;99.90;;;;;;4164733;28;20235;-76
2021/08/11 07:43:24;;;;;;;9.50;7.30;;;15.70;99.90;;;;;;4165769;28;20664;-76
2021/08/11 07:45:29;;;;;;;10.20;6.67;;;15.80;99.90;;;;;;4164844;28;20641;-76
2021/08/11 07:47:31;;;;;;;9.77;6.60;;;15.90;99.90;;;;;;4157512;28;20261;-76
2021/08/11 07:49:34;;;;;;;9.80;6.30;;;16.00;99.90;;;;;;4164502;28;20567;-75
2021/08/11 07:51:36;;;;;;;11.87;7.27;;;16.10;99.90;;;;;;4164738;28;20256;-75
2021/08/11 07:53:37;;;;;;;9.23;6.20;;;16.10;99.90;;;;;;4164316;28;20280;-76
2021/08/11 07:55:39;;;;;;;9.50;6.60;;;16.30;99.90;;;;;;4158403;28;20214;-76
2021/08/11 07:57:41;;;;;;;10.13;7.13;;;16.40;99.90;;;;;;4163961;28;20195;-76
2021/08/11 07:59:42;;;;;;;9.27;6.70;;;16.50;99.90;;;;;;4163485;28;20229;-75
2021/08/11 08:01:44;;;;;;;8.73;6.73;;;16.60;99.90;;;;;;4164363;28;20232;-75
2021/08/11 08:03:46;;;;;;;10.07;6.87;;;16.70;99.90;;;;;;4164025;28;20222;-75
2021/08/11 08:05:49;;;;;;;9.23;6.47;;;16.80;99.90;;;;;;4151647;28;20619;-76
2021/08/11 08:07:51;;;;;;;8.60;5.87;;;17.00;99.90;;;;;;4164751;28;20207;-76
2021/08/11 08:09:52;;;;;;;8.43;6.10;;;17.10;99.90;;;;;;4152876;28;20261;-76
2021/08/11 08:11:54;;;;;;;8.07;6.13;;;17.20;99.90;;;;;;4164199;28;20241;-76
2021/08/11 08:13:56;;;;;;;8.53;6.13;;;17.20;99.90;;;;;;4164207;28;20244;-75
2021/08/11 08:15:57;;;;;;;10.57;6.53;;;17.30;99.90;;;;;;4164543;28;20621;-75
2021/08/11 08:17:59;;;;;;;7.87;6.27;;;17.30;99.90;;;;;;4163919;28;20333;-75
2021/08/11 08:20:01;;;;;;;10.80;6.57;;;17.30;99.90;;;;;;4163104;28;20213;-75
2021/08/11 08:22:04;;;;;;;8.30;6.03;;;17.30;99.90;;;;;;4161387;28;20211;-76
2021/08/11 08:24:06;;;;;;;7.80;5.77;;;17.20;99.90;;;;;;4158799;28;20254;-75
2021/08/11 08:26:08;;;;;;;8.43;6.40;;;17.20;99.90;;;;;;4164341;28;20266;-76
2021/08/11 08:28:09;;;;;;;10.40;6.53;;;17.20;99.90;;;;;;4164793;28;20266;-75
2021/08/11 08:30:11;;;;;;;11.40;7.10;;;17.10;99.90;;;;;;4156566;28;20254;-75
2021/08/11 08:32:13;;;;;;;9.43;6.80;;;17.10;99.90;;;;;;4148186;28;20218;-75
2021/08/11 08:34:15;;;;;;;10.40;6.47;;;17.10;99.90;;;;;;4157661;28;20302;-75
2021/08/11 08:36:16;;;;;;;9.03;6.53;;;17.10;99.90;;;;;;4164244;28;20589;-75
2021/08/11 08:38:20;;;;;;;8.37;5.93;;;17.10;99.90;;;;;;4162015;28;20273;-75
2021/08/11 08:40:22;;;;;;;8.03;5.80;;;17.10;99.90;;;;;;4155954;28;20263;-75
2021/08/11 08:42:23;;;;;;;6.80;5.20;;;17.10;99.90;;;;;;4156701;28;20208;-76
2021/08/11 08:44:25;;;;;;;6.90;5.10;;;17.10;99.90;;;;;;4147887;28;20230;-76
2021/08/11 08:46:27;;;;;;;5.90;5.00;;;17.10;99.90;;;;;;4148669;28;20219;-75
2021/08/11 08:48:30;;;;;;;10.20;5.20;;;17.20;99.90;;;;;;4147134;28;20647;-76
2021/08/11 08:50:32;;;;;;;8.20;5.30;;;17.10;99.90;;;;;;4148151;28;20632;-76
2021/08/11 08:52:34;;;;;;;6.80;5.30;;;17.10;99.90;;;;;;4147337;28;20220;-76
2021/08/11 08:54:39;;;;;;;7.57;5.37;;;17.10;99.90;;;;;;4147212;28;20224;-75
2021/08/11 08:56:42;;;;;;;9.53;5.30;;;17.10;99.90;;;;;;4162727;28;20217;-75
2021/08/11 08:58:45;;;;;;;6.70;5.00;;;17.10;99.90;;;;;;4163577;28;20208;-76
2021/08/11 09:00:48;;;;;;;7.80;4.77;;;17.20;99.90;;;;;;4163144;28;20230;-75
2021/08/11 09:02:49;;;;;;;7.77;4.43;;;17.30;99.90;;;;;;4158202;28;20208;-75
2021/08/11 09:04:52;;;;;;;6.40;4.50;;;17.30;99.90;;;;;;4147216;28;20220;-75
2021/08/11 09:06:53;;;;;;;6.27;4.17;;;17.40;99.90;;;;;;4153660;28;20221;-75
2021/08/11 09:08:56;;;;;;;6.93;4.33;;;17.40;99.90;;;;;;4163551;28;20215;-75
2021/08/11 09:10:59;;;;;;;6.10;4.40;;;17.40;99.90;;;;;;4153771;28;20209;-75
2021/08/11 09:13:07;;;;;;;6.90;4.27;;;17.40;99.90;;;;;;4147172;28;20633;-75
2021/08/11 09:15:25;;;;;;;7.23;4.47;;;17.50;99.90;;;;;;4147026;28;20234;-75
2021/08/11 09:17:35;;;;;;;5.67;4.30;;;17.60;99.90;;;;;;4148703;28;20258;-75
2021/08/11 09:19:44;;;;;;;8.40;4.20;;;17.60;99.90;;;;;;4157881;28;20211;-75
2021/08/11 09:22:02;;;;;;;5.90;4.13;;;17.70;99.90;;;;;;4147676;28;20229;-76
2021/08/11 09:24:17;;;;;;;6.27;4.20;;;17.80;99.90;;;;;;4154535;28;20241;-75
2021/08/11 09:26:20;;;;;;;6.27;4.20;;;17.80;99.90;;;;;;4163310;28;20241;-75
2021/08/11 09:28:22;;;;;;;6.23;4.27;;;17.90;99.90;;;;;;4159496;28;20209;-75
2021/08/11 09:30:25;;;;;;;7.33;4.00;;;18.00;99.90;;;;;;4163154;28;20213;-75
2021/08/11 09:32:27;;;;;;;6.07;3.63;;;17.90;99.90;;;;;;4161483;28;20582;-75
2021/08/11 09:34:43;;;;;;;5.20;3.93;;;17.90;99.90;;;;;;4161739;28;20302;-76
2021/08/11 09:36:50;;;;;;;6.33;3.57;;;17.90;99.90;;;;;;4161746;28;20256;-75
2021/08/11 09:39:01;;;;;;;8.43;3.77;;;17.90;99.90;;;;;;4156846;28;20476;-74
2021/08/11 09:41:02;;;;;;;6.00;3.50;;;17.90;99.90;;;;;;4161174;28;20308;-74
2021/08/11 09:43:07;;;;;;;5.13;3.50;;;17.90;99.90;;;;;;4160994;28;20217;-75
2021/08/11 09:45:11;;;;;;;7.93;4.07;;;18.00;99.90;;;;;;4161472;28;20216;-75
2021/08/11 09:47:14;;;;;;;5.27;3.33;;;18.10;99.90;;;;;;4159446;28;20675;-74
2021/08/11 09:49:17;;;;;;;5.83;3.73;;;18.10;99.90;;;;;;4161326;28;20701;-74
2021/08/11 09:51:19;;;;;;;6.77;3.70;;;18.20;99.90;;;;;;4162204;28;20210;-75
2021/08/11 09:53:37;;;;;;;5.10;3.47;;;18.30;99.90;;;;;;4161279;28;20229;-74
2021/08/11 09:55:56;;;;;;;5.10;3.60;;;18.30;99.90;;;;;;4159761;28;20211;-74
2021/08/11 09:57:58;;;;;;;4.90;3.07;;;18.40;99.90;;;;;;4163459;28;20247;-75
2021/08/11 10:00:01;;;;;;;5.07;3.40;;;18.50;99.90;;;;;;4162695;28;20745;-74
2021/08/11 10:02:16;;;;;;;7.80;3.70;;;18.50;99.90;;;;;;4162888;28;20234;-74
2021/08/11 10:04:19;;;;;;;5.17;3.27;;;18.70;99.90;;;;;;4156419;28;20234;-75
2021/08/11 10:06:25;;;;;;;4.20;2.87;;;18.80;99.90;;;;;;4147392;28;20703;-74
2021/08/11 10:08:32;;;;;;;4.33;2.60;;;18.90;99.90;;;;;;4149544;28;20254;-74
2021/08/11 10:10:48;;;;;;;5.37;3.10;;;19.00;99.90;;;;;;4160776;28;20209;-75
2021/08/11 10:12:52;;;;;;;5.90;3.10;;;19.10;99.90;;;;;;4162823;28;20218;-75
2021/08/11 10:14:55;;;;;;;6.27;3.60;;;19.20;99.90;;;;;;4150947;28;20309;-74
2021/08/11 10:17:00;;;;;;;5.90;3.47;;;19.40;99.90;;;;;;4147283;28;20234;-74
2021/08/11 10:19:04;;;;;;;4.83;3.20;;;19.50;99.90;;;;;;4146080;28;20212;-75
2021/08/11 10:21:06;;;;;;;5.97;3.27;;;19.60;99.90;;;;;;4161044;28;20237;-75
2021/08/11 10:23:08;;;;;;;4.53;3.13;;;19.70;99.90;;;;;;4154313;28;20290;-74
2021/08/11 10:25:10;;;;;;;5.90;3.80;;;19.70;99.90;;;;;;4146414;28;20215;-74
2021/08/11 10:27:14;;;;;;;6.00;3.63;;;19.80;99.90;;;;;;4147520;28;20633;-75
2021/08/11 10:29:16;;;;;;;6.23;3.63;;;19.90;99.90;;;;;;4154248;28;20208;-75
2021/08/11 10:31:18;;;;;;;5.40;3.80;;;19.90;99.90;;;;;;4163167;28;20237;-74
2021/08/11 10:33:22;;;;;;;8.47;3.90;;;20.00;99.90;;;;;;4161426;28;20249;-74
2021/08/11 10:35:24;;;;;;;8.63;3.83;;;20.00;99.90;;;;;;4162440;28;20269;-75
2021/08/11 10:37:25;;;;;;;6.77;4.53;;;20.10;99.90;;;;;;4162841;28;20256;-75
2021/08/11 10:39:29;;;;;;;6.03;4.10;;;20.10;99.90;;;;;;4162247;28;20203;-75